sensor_id;sensor_type;location;lat;lon;timestamp;temperature;humidity
35894;DHT22;21994;48.204;16.516;2024-01-30T00:02:23;2.50;99.90
35894;DHT22;21994;48.204;16.516;2024-01-30T00:04:49;2.50;99.90
35894;DHT22;21994;48.204;16.516;2024-01-30T00:07:14;2.50;99.90
35894;DHT22;21994;48.204;16.516;2024-01-30T00:09:40;2.50;99.90
35894;DHT22;21994;48.204;16.516;2024-01-30T00:12:06;2.50;99.90
35894;DHT22;21994;48.204;16.516;2024-01-30T00:14:32;2.50;99.90
35894;DHT22;21994;48.204;16.516;2024-01-30T00:16:58;2.40;99.90
35894;DHT22;21994;48.204;16.516;2024-01-30T00:19:24;2.40;99.90
35894;DHT22;21994;48.204;16.516;2024-01-30T00:21:49;2.50;99.90
35894;DHT22;21994;48.204;16.516;2024-01-30T00:24:15;2.50;99.90
35894;DHT22;21994;48.204;16.516;2024-01-30T00:26:41;2.50;99.90
35894;DHT22;21994;48.204;16.516;2024-01-30T00:29:07;2.50;99.90
35894;DHT22;21994;48.204;16.516;2024-01-30T00:31:33;2.50;99.90
35894;DHT22;21994;48.204;16.516;2024-01-30T00:33:58;2.50;99.90
35894;DHT22;21994;48.204;16.516;2024-01-30T00:36:24;2.50;99.90
35894;DHT22;21994;48.204;16.516;2024-01-30T00:38:50;2.50;99.90
35894;DHT22;21994;48.204;16.516;2024-01-30T00:41:17;2.50;99.90
35894;DHT22;21994;48.204;16.516;2024-01-30T00:43:43;2.60;99.90
35894;DHT22;21994;48.204;16.516;2024-01-30T00:46:09;2.50;99.90
35894;DHT22;21994;48.204;16.516;2024-01-30T00:48:35;2.60;99.90
35894;DHT22;21994;48.204;16.516;2024-01-30T00:51:00;2.60;99.90
35894;DHT22;21994;48.204;16.516;2024-01-30T00:53:26;2.60;99.90
35894;DHT22;21994;48.204;16.516;2024-01-30T00:55:52;2.60;99.90
35894;DHT22;21994;48.204;16.516;2024-01-30T00:58:18;2.60;99.90
35894;DHT22;21994;48.204;16.516;2024-01-30T01:00:44;2.50;99.90
35894;DHT22;21994;48.204;16.516;2024-01-30T01:03:10;2.50;99.90
35894;DHT22;21994;48.204;16.516;2024-01-30T01:05:36;2.40;99.90
35894;DHT22;21994;48.204;16.516;2024-01-30T01:08:02;2.40;99.90
35894;DHT22;21994;48.204;16.516;2024-01-30T01:10:28;2.40;99.90
35894;DHT22;21994;48.204;16.516;2024-01-30T01:12:54;2.30;99.90
35894;DHT22;21994;48.204;16.516;2024-01-30T01:15:19;2.40;99.90
35894;DHT22;21994;48.204;16.516;2024-01-30T01:17:45;2.30;99.90
35894;DHT22;21994;48.204;16.516;2024-01-30T01:20:11;2.30;99.90
35894;DHT22;21994;48.204;16.516;2024-01-30T01:22:37;2.30;99.90
35894;DHT22;21994;48.204;16.516;2024-01-30T01:25:04;2.20;99.90
35894;DHT22;21994;48.204;16.516;2024-01-30T01:27:32;2.30;99.90
35894;DHT22;21994;48.204;16.516;2024-01-30T01:30:00;2.20;99.90
35894;DHT22;21994;48.204;16.516;2024-01-30T01:32:26;2.20;99.90
35894;DHT22;21994;48.204;16.516;2024-01-30T01:34:51;2.30;99.90
35894;DHT22;21994;48.204;16.516;2024-01-30T01:37:17;2.20;99.90
35894;DHT22;21994;48.204;16.516;2024-01-30T01:39:47;2.10;99.90
35894;DHT22;21994;48.204;16.516;2024-01-30T01:42:13;2.10;99.90
35894;DHT22;21994;48.204;16.516;2024-01-30T01:44:38;2.20;99.90
35894;DHT22;21994;48.204;16.516;2024-01-30T01:47:04;2.20;99.90
35894;DHT22;21994;48.204;16.516;2024-01-30T01:49:30;2.20;99.90
35894;DHT22;21994;48.204;16.516;2024-01-30T01:51:56;2.30;99.90
35894;DHT22;21994;48.204;16.516;2024-01-30T01:54:22;2.30;99.90
35894;DHT22;21994;48.204;16.516;2024-01-30T01:56:49;2.30;99.90
35894;DHT22;21994;48.204;16.516;2024-01-30T01:59:15;2.20;99.90
35894;DHT22;21994;48.204;16.516;2024-01-30T02:01:41;2.10;99.90
35894;DHT22;21994;48.204;16.516;2024-01-30T02:04:07;2.00;99.90
35894;DHT22;21994;48.204;16.516;2024-01-30T02:06:33;2.10;99.90
35894;DHT22;21994;48.204;16.516;2024-01-30T02:09:00;2.10;99.90
35894;DHT22;21994;48.204;16.516;2024-01-30T02:11:26;2.10;99.90
35894;DHT22;21994;48.204;16.516;2024-01-30T02:13:52;2.00;99.90
35894;DHT22;21994;48.204;16.516;2024-01-30T02:16:17;2.00;99.90
35894;DHT22;21994;48.204;16.516;2024-01-30T02:18:43;2.00;99.90
35894;DHT22;21994;48.204;16.516;2024-01-30T02:21:16;2.00;99.90
35894;DHT22;21994;48.204;16.516;2024-01-30T02:23:48;2.00;99.90
35894;DHT22;21994;48.204;16.516;2024-01-30T02:26:15;2.00;99.90
35894;DHT22;21994;48.204;16.516;2024-01-30T02:28:41;2.00;99.90
35894;DHT22;21994;48.204;16.516;2024-01-30T02:31:07;2.00;99.90
35894;DHT22;21994;48.204;16.516;2024-01-30T02:33:32;2.00;99.90
35894;DHT22;21994;48.204;16.516;2024-01-30T02:35:58;2.00;99.90
35894;DHT22;21994;48.204;16.516;2024-01-30T02:38:24;1.90;99.90
35894;DHT22;21994;48.204;16.516;2024-01-30T02:40:52;1.90;99.90
35894;DHT22;21994;48.204;16.516;2024-01-30T02:43:18;1.90;99.90
35894;DHT22;21994;48.204;16.516;2024-01-30T02:45:43;1.90;99.90
35894;DHT22;21994;48.204;16.516;2024-01-30T02:48:09;1.90;99.90
35894;DHT22;21994;48.204;16.516;2024-01-30T02:50:35;1.90;99.90
35894;DHT22;21994;48.204;16.516;2024-01-30T02:53:01;1.80;99.90
35894;DHT22;21994;48.204;16.516;2024-01-30T02:55:26;1.90;99.90
35894;DHT22;21994;48.204;16.516;2024-01-30T02:57:52;1.80;99.90
35894;DHT22;21994;48.204;16.516;2024-01-30T03:00:20;1.80;99.90
35894;DHT22;21994;48.204;16.516;2024-01-30T03:02:45;1.80;99.90
35894;DHT22;21994;48.204;16.516;2024-01-30T03:05:11;1.80;99.90
35894;DHT22;21994;48.204;16.516;2024-01-30T03:07:37;1.70;99.90
35894;DHT22;21994;48.204;16.516;2024-01-30T03:10:06;1.70;99.90
35894;DHT22;21994;48.204;16.516;2024-01-30T03:12:32;1.70;99.90
35894;DHT22;21994;48.204;16.516;2024-01-30T03:14:58;1.80;99.90
35894;DHT22;21994;48.204;16.516;2024-01-30T03:17:24;1.70;99.90
35894;DHT22;21994;48.204;16.516;2024-01-30T03:19:50;1.70;99.90
35894;DHT22;21994;48.204;16.516;2024-01-30T03:22:16;1.70;99.90
35894;DHT22;21994;48.204;16.516;2024-01-30T03:24:42;1.70;99.90
35894;DHT22;21994;48.204;16.516;2024-01-30T03:27:08;1.70;99.90
35894;DHT22;21994;48.204;16.516;2024-01-30T03:29:35;1.70;99.90
35894;DHT22;21994;48.204;16.516;2024-01-30T03:32:01;1.70;99.90
35894;DHT22;21994;48.204;16.516;2024-01-30T03:34:29;1.60;99.90
35894;DHT22;21994;48.204;16.516;2024-01-30T03:36:55;1.60;99.90
35894;DHT22;21994;48.204;16.516;2024-01-30T03:39:21;1.60;99.90
35894;DHT22;21994;48.204;16.516;2024-01-30T03:41:46;1.60;99.90
35894;DHT22;21994;48.204;16.516;2024-01-30T03:44:12;1.60;99.90
35894;DHT22;21994;48.204;16.516;2024-01-30T03:46:38;1.60;99.90
35894;DHT22;21994;48.204;16.516;2024-01-30T03:49:04;1.60;99.90
35894;DHT22;21994;48.204;16.516;2024-01-30T03:51:29;1.60;99.90
35894;DHT22;21994;48.204;16.516;2024-01-30T03:53:55;1.60;99.90
35894;DHT22;21994;48.204;16.516;2024-01-30T03:56:21;1.60;99.90
35894;DHT22;21994;48.204;16.516;2024-01-30T03:58:47;1.60;99.90
35894;DHT22;21994;48.204;16.516;2024-01-30T04:01:15;1.60;99.90
35894;DHT22;21994;48.204;16.516;2024-01-30T04:03:41;1.60;99.90
35894;DHT22;21994;48.204;16.516;2024-01-30T04:06:09;1.60;99.90
35894;DHT22;21994;48.204;16.516;2024-01-30T04:08:35;1.60;99.90
35894;DHT22;21994;48.204;16.516;2024-01-30T04:11:04;1.60;99.90
35894;DHT22;21994;48.204;16.516;2024-01-30T04:13:33;1.60;99.90
35894;DHT22;21994;48.204;16.516;2024-01-30T04:15:59;1.60;99.90
35894;DHT22;21994;48.204;16.516;2024-01-30T04:18:28;1.60;99.90
35894;DHT22;21994;48.204;16.516;2024-01-30T04:20:54;1.50;99.90
35894;DHT22;21994;48.204;16.516;2024-01-30T04:23:20;1.50;99.90
35894;DHT22;21994;48.204;16.516;2024-01-30T04:25:46;1.50;99.90
35894;DHT22;21994;48.204;16.516;2024-01-30T04:28:12;1.50;99.90
35894;DHT22;21994;48.204;16.516;2024-01-30T04:30:38;1.40;99.90
35894;DHT22;21994;48.204;16.516;2024-01-30T04:33:04;1.40;99.90
35894;DHT22;21994;48.204;16.516;2024-01-30T04:35:30;1.40;99.90
35894;DHT22;21994;48.204;16.516;2024-01-30T04:37:55;1.30;99.90
35894;DHT22;21994;48.204;16.516;2024-01-30T04:40:21;1.40;99.90
35894;DHT22;21994;48.204;16.516;2024-01-30T04:42:47;1.30;99.90
35894;DHT22;21994;48.204;16.516;2024-01-30T04:45:13;1.20;99.90
35894;DHT22;21994;48.204;16.516;2024-01-30T04:47:39;1.20;99.90
35894;DHT22;21994;48.204;16.516;2024-01-30T04:50:06;1.20;99.90
35894;DHT22;21994;48.204;16.516;2024-01-30T04:52:32;1.20;99.90
35894;DHT22;21994;48.204;16.516;2024-01-30T04:54:58;1.20;99.90
35894;DHT22;21994;48.204;16.516;2024-01-30T04:57:24;1.20;99.90
35894;DHT22;21994;48.204;16.516;2024-01-30T04:59:49;1.20;99.90
35894;DHT22;21994;48.204;16.516;2024-01-30T05:02:15;1.10;99.90
35894;DHT22;21994;48.204;16.516;2024-01-30T05:04:41;1.10;99.90
35894;DHT22;21994;48.204;16.516;2024-01-30T05:07:07;1.10;99.90
35894;DHT22;21994;48.204;16.516;2024-01-30T05:09:33;1.10;99.90
35894;DHT22;21994;48.204;16.516;2024-01-30T05:11:59;1.00;99.90
35894;DHT22;21994;48.204;16.516;2024-01-30T05:14:24;1.00;99.90
35894;DHT22;21994;48.204;16.516;2024-01-30T05:16:50;1.10;99.90
35894;DHT22;21994;48.204;16.516;2024-01-30T05:19:16;1.00;99.90
35894;DHT22;21994;48.204;16.516;2024-01-30T05:21:42;1.00;99.90
35894;DHT22;21994;48.204;16.516;2024-01-30T05:24:08;1.00;99.90
35894;DHT22;21994;48.204;16.516;2024-01-30T05:26:35;1.00;99.90
35894;DHT22;21994;48.204;16.516;2024-01-30T05:29:02;0.90;99.90
35894;DHT22;21994;48.204;16.516;2024-01-30T05:31:28;0.90;99.90
35894;DHT22;21994;48.204;16.516;2024-01-30T05:33:54;0.90;99.90
35894;DHT22;21994;48.204;16.516;2024-01-30T05:36:20;0.90;99.90
35894;DHT22;21994;48.204;16.516;2024-01-30T05:38:46;0.90;99.90
35894;DHT22;21994;48.204;16.516;2024-01-30T05:41:12;0.90;99.90
35894;DHT22;21994;48.204;16.516;2024-01-30T05:43:37;0.80;99.90
35894;DHT22;21994;48.204;16.516;2024-01-30T05:46:03;0.70;99.90
35894;DHT22;21994;48.204;16.516;2024-01-30T05:48:29;0.70;99.90
35894;DHT22;21994;48.204;16.516;2024-01-30T05:50:55;0.70;99.90
35894;DHT22;21994;48.204;16.516;2024-01-30T05:53:21;0.70;99.90
35894;DHT22;21994;48.204;16.516;2024-01-30T05:55:47;0.70;99.90
35894;DHT22;21994;48.204;16.516;2024-01-30T05:58:13;0.70;99.90
35894;DHT22;21994;48.204;16.516;2024-01-30T06:00:39;0.70;99.90
35894;DHT22;21994;48.204;16.516;2024-01-30T06:03:04;0.60;99.90
35894;DHT22;21994;48.204;16.516;2024-01-30T06:05:30;0.60;99.90
35894;DHT22;21994;48.204;16.516;2024-01-30T06:07:56;0.50;99.90
35894;DHT22;21994;48.204;16.516;2024-01-30T06:10:22;0.60;99.90
35894;DHT22;21994;48.204;16.516;2024-01-30T06:12:48;0.60;99.90
35894;DHT22;21994;48.204;16.516;2024-01-30T06:15:13;0.70;99.90
35894;DHT22;21994;48.204;16.516;2024-01-30T06:17:39;0.70;99.90
35894;DHT22;21994;48.204;16.516;2024-01-30T06:20:05;0.60;99.90
35894;DHT22;21994;48.204;16.516;2024-01-30T06:22:31;0.60;99.90
35894;DHT22;21994;48.204;16.516;2024-01-30T06:24:57;0.60;99.90
35894;DHT22;21994;48.204;16.516;2024-01-30T06:27:23;0.50;99.90
35894;DHT22;21994;48.204;16.516;2024-01-30T06:29:49;0.60;99.90
35894;DHT22;21994;48.204;16.516;2024-01-30T06:32:15;0.60;99.90
35894;DHT22;21994;48.204;16.516;2024-01-30T06:34:41;0.60;99.90
35894;DHT22;21994;48.204;16.516;2024-01-30T06:37:09;0.60;99.90
35894;DHT22;21994;48.204;16.516;2024-01-30T06:39:35;0.60;99.90
35894;DHT22;21994;48.204;16.516;2024-01-30T06:42:00;0.60;99.90
35894;DHT22;21994;48.204;16.516;2024-01-30T06:44:26;0.60;99.90
35894;DHT22;21994;48.204;16.516;2024-01-30T06:46:52;0.60;99.90
35894;DHT22;21994;48.204;16.516;2024-01-30T06:49:18;0.70;99.90
35894;DHT22;21994;48.204;16.516;2024-01-30T06:51:44;0.70;99.90
35894;DHT22;21994;48.204;16.516;2024-01-30T06:54:09;0.70;99.90
35894;DHT22;21994;48.204;16.516;2024-01-30T06:56:35;0.80;99.90
35894;DHT22;21994;48.204;16.516;2024-01-30T06:59:01;0.80;99.90
35894;DHT22;21994;48.204;16.516;2024-01-30T07:01:27;0.80;99.90
35894;DHT22;21994;48.204;16.516;2024-01-30T07:03:54;0.80;99.90
35894;DHT22;21994;48.204;16.516;2024-01-30T07:06:20;0.80;99.90
35894;DHT22;21994;48.204;16.516;2024-01-30T07:08:46;0.80;99.90
35894;DHT22;21994;48.204;16.516;2024-01-30T07:11:18;0.80;99.90
35894;DHT22;21994;48.204;16.516;2024-01-30T07:13:47;0.90;99.90
35894;DHT22;21994;48.204;16.516;2024-01-30T07:16:14;0.90;99.90
35894;DHT22;21994;48.204;16.516;2024-01-30T07:18:40;1.00;99.90
35894;DHT22;21994;48.204;16.516;2024-01-30T07:21:06;1.10;99.90
35894;DHT22;21994;48.204;16.516;2024-01-30T07:23:32;1.10;99.90
35894;DHT22;21994;48.204;16.516;2024-01-30T07:25:59;1.20;99.90
35894;DHT22;21994;48.204;16.516;2024-01-30T07:28:25;1.20;99.90
35894;DHT22;21994;48.204;16.516;2024-01-30T07:30:51;1.30;99.90
35894;DHT22;21994;48.204;16.516;2024-01-30T07:33:17;1.30;99.90
35894;DHT22;21994;48.204;16.516;2024-01-30T07:35:43;1.40;99.90
35894;DHT22;21994;48.204;16.516;2024-01-30T07:38:09;1.50;99.90
35894;DHT22;21994;48.204;16.516;2024-01-30T07:40:35;1.50;99.90
35894;DHT22;21994;48.204;16.516;2024-01-30T07:43:00;1.60;99.90
35894;DHT22;21994;48.204;16.516;2024-01-30T07:45:28;1.70;99.90
35894;DHT22;21994;48.204;16.516;2024-01-30T07:47:57;1.70;99.90
35894;DHT22;21994;48.204;16.516;2024-01-30T07:50:23;1.80;99.90
35894;DHT22;21994;48.204;16.516;2024-01-30T07:52:49;1.90;99.90
35894;DHT22;21994;48.204;16.516;2024-01-30T07:55:52;2.00;99.90
35894;DHT22;21994;48.204;16.516;2024-01-30T07:58:15;2.00;99.90
35894;DHT22;21994;48.204;16.516;2024-01-30T08:00:41;2.10;99.90
35894;DHT22;21994;48.204;16.516;2024-01-30T08:03:06;2.20;99.90
35894;DHT22;21994;48.204;16.516;2024-01-30T08:05:32;2.20;99.90
35894;DHT22;21994;48.204;16.516;2024-01-30T08:07:58;2.20;99.90
35894;DHT22;21994;48.204;16.516;2024-01-30T08:10:24;2.30;99.90
35894;DHT22;21994;48.204;16.516;2024-01-30T08:12:50;2.30;99.90
35894;DHT22;21994;48.204;16.516;2024-01-30T08:15:16;2.30;99.90
35894;DHT22;21994;48.204;16.516;2024-01-30T08:17:41;2.40;99.90
35894;DHT22;21994;48.204;16.516;2024-01-30T08:20:07;2.40;99.90
35894;DHT22;21994;48.204;16.516;2024-01-30T08:22:40;2.40;99.90
35894;DHT22;21994;48.204;16.516;2024-01-30T08:25:06;2.50;99.90
35894;DHT22;21994;48.204;16.516;2024-01-30T08:27:33;2.50;99.90
35894;DHT22;21994;48.204;16.516;2024-01-30T08:30:01;2.60;99.90
35894;DHT22;21994;48.204;16.516;2024-01-30T08:32:27;2.60;99.90
35894;DHT22;21994;48.204;16.516;2024-01-30T08:34:53;2.70;99.90
35894;DHT22;21994;48.204;16.516;2024-01-30T08:37:19;2.80;99.90
35894;DHT22;21994;48.204;16.516;2024-01-30T08:39:44;2.80;99.90
35894;DHT22;21994;48.204;16.516;2024-01-30T08:42:10;2.90;99.90
35894;DHT22;21994;48.204;16.516;2024-01-30T08:44:36;2.90;99.90
35894;DHT22;21994;48.204;16.516;2024-01-30T08:47:02;3.00;99.90
35894;DHT22;21994;48.204;16.516;2024-01-30T08:49:28;3.10;99.90
35894;DHT22;21994;48.204;16.516;2024-01-30T08:51:54;3.10;99.90
35894;DHT22;21994;48.204;16.516;2024-01-30T08:54:20;3.10;99.90
35894;DHT22;21994;48.204;16.516;2024-01-30T08:56:45;3.20;99.90
35894;DHT22;21994;48.204;16.516;2024-01-30T08:59:11;3.30;99.90
35894;DHT22;21994;48.204;16.516;2024-01-30T09:01:37;3.30;99.90
35894;DHT22;21994;48.204;16.516;2024-01-30T09:04:03;3.40;99.90
35894;DHT22;21994;48.204;16.516;2024-01-30T09:06:29;3.50;99.90
35894;DHT22;21994;48.204;16.516;2024-01-30T09:08:55;3.50;99.90
35894;DHT22;21994;48.204;16.516;2024-01-30T09:11:20;3.50;99.90
35894;DHT22;21994;48.204;16.516;2024-01-30T09:13:46;3.70;99.90
35894;DHT22;21994;48.204;16.516;2024-01-30T09:16:12;4.30;99.90
35894;DHT22;21994;48.204;16.516;2024-01-30T09:18:38;5.50;99.90
35894;DHT22;21994;48.204;16.516;2024-01-30T09:21:03;6.40;99.90
35894;DHT22;21994;48.204;16.516;2024-01-30T09:23:32;6.40;99.90
35894;DHT22;21994;48.204;16.516;2024-01-30T09:25:59;6.80;99.90
35894;DHT22;21994;48.204;16.516;2024-01-30T09:28:24;7.00;99.90
35894;DHT22;21994;48.204;16.516;2024-01-30T09:30:50;7.20;99.90
35894;DHT22;21994;48.204;16.516;2024-01-30T09:33:16;7.80;99.90
35894;DHT22;21994;48.204;16.516;2024-01-30T09:35:42;8.40;98.90
35894;DHT22;21994;48.204;16.516;2024-01-30T09:38:07;8.80;98.10
35894;DHT22;21994;48.204;16.516;2024-01-30T09:40:33;8.60;98.10
35894;DHT22;21994;48.204;16.516;2024-01-30T09:42:59;8.80;96.80
35894;DHT22;21994;48.204;16.516;2024-01-30T09:45:25;8.90;97.50
35894;DHT22;21994;48.204;16.516;2024-01-30T09:47:51;9.20;96.60
35894;DHT22;21994;48.204;16.516;2024-01-30T09:50:18;9.00;96.80
35894;DHT22;21994;48.204;16.516;2024-01-30T09:52:44;9.70;96.00
35894;DHT22;21994;48.204;16.516;2024-01-30T09:55:11;10.10;95.20
35894;DHT22;21994;48.204;16.516;2024-01-30T09:57:37;9.70;95.90
35894;DHT22;21994;48.204;16.516;2024-01-30T10:00:03;9.40;95.80
35894;DHT22;21994;48.204;16.516;2024-01-30T10:02:32;9.60;95.00
35894;DHT22;21994;48.204;16.516;2024-01-30T10:04:58;9.20;96.20
35894;DHT22;21994;48.204;16.516;2024-01-30T10:07:24;9.50;95.90
35894;DHT22;21994;48.204;16.516;2024-01-30T10:09:50;9.50;95.30
35894;DHT22;21994;48.204;16.516;2024-01-30T10:12:16;9.60;95.40
35894;DHT22;21994;48.204;16.516;2024-01-30T10:14:42;9.70;95.40
35894;DHT22;21994;48.204;16.516;2024-01-30T10:17:08;9.90;95.10
35894;DHT22;21994;48.204;16.516;2024-01-30T10:19:35;9.90;95.10
35894;DHT22;21994;48.204;16.516;2024-01-30T10:22:02;10.30;95.00
35894;DHT22;21994;48.204;16.516;2024-01-30T10:24:29;10.50;93.90
35894;DHT22;21994;48.204;16.516;2024-01-30T10:26:55;10.30;94.50
35894;DHT22;21994;48.204;16.516;2024-01-30T10:29:21;10.30;94.50
35894;DHT22;21994;48.204;16.516;2024-01-30T10:31:57;10.40;94.20
35894;DHT22;21994;48.204;16.516;2024-01-30T10:34:26;10.70;94.30
35894;DHT22;21994;48.204;16.516;2024-01-30T10:36:56;10.70;93.40
35894;DHT22;21994;48.204;16.516;2024-01-30T10:39:25;10.70;93.80
35894;DHT22;21994;48.204;16.516;2024-01-30T10:41:55;10.60;94.50
35894;DHT22;21994;48.204;16.516;2024-01-30T10:44:22;11.00;93.40
35894;DHT22;21994;48.204;16.516;2024-01-30T10:46:50;11.00;93.10
35894;DHT22;21994;48.204;16.516;2024-01-30T10:49:18;10.90;93.00
35894;DHT22;21994;48.204;16.516;2024-01-30T10:51:44;10.70;93.40
35894;DHT22;21994;48.204;16.516;2024-01-30T10:54:11;10.80;94.00
35894;DHT22;21994;48.204;16.516;2024-01-30T10:56:37;11.30;93.50
35894;DHT22;21994;48.204;16.516;2024-01-30T10:59:04;11.40;92.80
35894;DHT22;21994;48.204;16.516;2024-01-30T11:01:30;11.50;93.40
35894;DHT22;21994;48.204;16.516;2024-01-30T11:03:56;11.90;92.10
35894;DHT22;21994;48.204;16.516;2024-01-30T11:06:22;11.30;92.50
35894;DHT22;21994;48.204;16.516;2024-01-30T11:09:01;11.20;92.70
35894;DHT22;21994;48.204;16.516;2024-01-30T11:11:29;11.10;92.90
35894;DHT22;21994;48.204;16.516;2024-01-30T11:13:55;10.90;92.60
35894;DHT22;21994;48.204;16.516;2024-01-30T11:16:21;10.20;93.20
35894;DHT22;21994;48.204;16.516;2024-01-30T11:18:50;9.80;93.70
35894;DHT22;21994;48.204;16.516;2024-01-30T11:21:17;9.40;94.70
35894;DHT22;21994;48.204;16.516;2024-01-30T11:23:42;9.50;94.70
35894;DHT22;21994;48.204;16.516;2024-01-30T11:26:11;9.50;95.00
35894;DHT22;21994;48.204;16.516;2024-01-30T11:28:37;9.80;94.80
35894;DHT22;21994;48.204;16.516;2024-01-30T11:31:03;9.90;94.30
35894;DHT22;21994;48.204;16.516;2024-01-30T11:33:30;9.70;94.30
35894;DHT22;21994;48.204;16.516;2024-01-30T11:35:59;9.20;95.20
35894;DHT22;21994;48.204;16.516;2024-01-30T11:38:26;8.60;96.00
35894;DHT22;21994;48.204;16.516;2024-01-30T11:40:54;8.10;96.80
35894;DHT22;21994;48.204;16.516;2024-01-30T11:43:21;7.90;97.60
35894;DHT22;21994;48.204;16.516;2024-01-30T11:45:46;7.90;97.60
35894;DHT22;21994;48.204;16.516;2024-01-30T11:48:12;7.90;97.90
35894;DHT22;21994;48.204;16.516;2024-01-30T11:50:39;7.90;97.60
35894;DHT22;21994;48.204;16.516;2024-01-30T11:53:06;8.00;97.80
35894;DHT22;21994;48.204;16.516;2024-01-30T11:55:32;8.10;97.50
35894;DHT22;21994;48.204;16.516;2024-01-30T11:57:58;8.10;97.20
35894;DHT22;21994;48.204;16.516;2024-01-30T12:00:24;8.30;98.00
35894;DHT22;21994;48.204;16.516;2024-01-30T12:02:51;8.40;97.20
35894;DHT22;21994;48.204;16.516;2024-01-30T12:05:24;8.40;96.80
35894;DHT22;21994;48.204;16.516;2024-01-30T12:07:51;8.40;96.80
35894;DHT22;21994;48.204;16.516;2024-01-30T12:10:17;8.50;97.30
35894;DHT22;21994;48.204;16.516;2024-01-30T12:12:44;8.60;97.00
35894;DHT22;21994;48.204;16.516;2024-01-30T12:15:12;8.70;96.40
35894;DHT22;21994;48.204;16.516;2024-01-30T12:17:38;8.50;96.70
35894;DHT22;21994;48.204;16.516;2024-01-30T12:20:11;8.60;97.00
35894;DHT22;21994;48.204;16.516;2024-01-30T12:22:45;8.70;96.90
35894;DHT22;21994;48.204;16.516;2024-01-30T12:25:16;8.70;96.20
35894;DHT22;21994;48.204;16.516;2024-01-30T12:27:44;8.60;96.30
35894;DHT22;21994;48.204;16.516;2024-01-30T12:30:13;8.50;96.20
35894;DHT22;21994;48.204;16.516;2024-01-30T12:32:43;8.50;96.30
35894;DHT22;21994;48.204;16.516;2024-01-30T12:35:10;8.50;96.40
35894;DHT22;21994;48.204;16.516;2024-01-30T12:37:37;8.70;96.30
35894;DHT22;21994;48.204;16.516;2024-01-30T12:40:03;8.80;96.40
35894;DHT22;21994;48.204;16.516;2024-01-30T12:42:31;8.80;95.90
35894;DHT22;21994;48.204;16.516;2024-01-30T12:44:57;8.80;95.90
35894;DHT22;21994;48.204;16.516;2024-01-30T12:47:24;8.90;95.70
35894;DHT22;21994;48.204;16.516;2024-01-30T12:49:53;9.00;95.40
35894;DHT22;21994;48.204;16.516;2024-01-30T12:52:19;9.10;95.50
35894;DHT22;21994;48.204;16.516;2024-01-30T12:54:47;9.30;95.80
35894;DHT22;21994;48.204;16.516;2024-01-30T12:57:13;9.50;94.90
35894;DHT22;21994;48.204;16.516;2024-01-30T12:59:39;9.50;95.10
35894;DHT22;21994;48.204;16.516;2024-01-30T13:02:04;9.70;95.30
35894;DHT22;21994;48.204;16.516;2024-01-30T13:04:30;9.90;94.60
35894;DHT22;21994;48.204;16.516;2024-01-30T13:06:56;9.90;93.90
35894;DHT22;21994;48.204;16.516;2024-01-30T13:09:23;9.80;93.70
35894;DHT22;21994;48.204;16.516;2024-01-30T13:11:49;9.70;94.10
35894;DHT22;21994;48.204;16.516;2024-01-30T13:14:19;9.60;94.20
35894;DHT22;21994;48.204;16.516;2024-01-30T13:16:45;9.70;94.80
35894;DHT22;21994;48.204;16.516;2024-01-30T13:19:10;9.80;93.60
35894;DHT22;21994;48.204;16.516;2024-01-30T13:21:36;9.60;94.20
35894;DHT22;21994;48.204;16.516;2024-01-30T13:24:03;9.60;93.90
35894;DHT22;21994;48.204;16.516;2024-01-30T13:26:29;9.60;94.70
35894;DHT22;21994;48.204;16.516;2024-01-30T13:28:56;9.70;94.50
35894;DHT22;21994;48.204;16.516;2024-01-30T13:31:22;9.90;94.30
35894;DHT22;21994;48.204;16.516;2024-01-30T13:33:47;9.90;93.60
35894;DHT22;21994;48.204;16.516;2024-01-30T13:36:14;9.90;94.00
35894;DHT22;21994;48.204;16.516;2024-01-30T13:38:40;10.00;93.80
35894;DHT22;21994;48.204;16.516;2024-01-30T13:41:06;9.90;93.90
35894;DHT22;21994;48.204;16.516;2024-01-30T13:43:32;10.00;94.20
35894;DHT22;21994;48.204;16.516;2024-01-30T13:45:58;9.90;93.60
35894;DHT22;21994;48.204;16.516;2024-01-30T13:48:24;9.80;93.90
35894;DHT22;21994;48.204;16.516;2024-01-30T13:50:50;9.90;93.70
35894;DHT22;21994;48.204;16.516;2024-01-30T13:53:15;9.80;94.10
35894;DHT22;21994;48.204;16.516;2024-01-30T13:55:41;9.90;94.20
35894;DHT22;21994;48.204;16.516;2024-01-30T13:58:07;10.00;93.90
35894;DHT22;21994;48.204;16.516;2024-01-30T14:00:33;10.10;93.60
35894;DHT22;21994;48.204;16.516;2024-01-30T14:02:59;10.10;93.40
35894;DHT22;21994;48.204;16.516;2024-01-30T14:05:25;10.00;93.70
35894;DHT22;21994;48.204;16.516;2024-01-30T14:07:53;9.80;94.30
35894;DHT22;21994;48.204;16.516;2024-01-30T14:10:19;9.90;93.90
35894;DHT22;21994;48.204;16.516;2024-01-30T14:12:45;10.00;93.70
35894;DHT22;21994;48.204;16.516;2024-01-30T14:15:13;9.70;93.70
35894;DHT22;21994;48.204;16.516;2024-01-30T14:17:40;9.60;94.10
35894;DHT22;21994;48.204;16.516;2024-01-30T14:20:06;9.80;94.10
35894;DHT22;21994;48.204;16.516;2024-01-30T14:22:36;9.80;94.00
35894;DHT22;21994;48.204;16.516;2024-01-30T14:25:02;9.80;94.10
35894;DHT22;21994;48.204;16.516;2024-01-30T14:27:31;9.70;94.00
35894;DHT22;21994;48.204;16.516;2024-01-30T14:29:57;9.60;94.00
35894;DHT22;21994;48.204;16.516;2024-01-30T14:32:23;9.30;94.50
35894;DHT22;21994;48.204;16.516;2024-01-30T14:34:49;8.90;94.80
35894;DHT22;21994;48.204;16.516;2024-01-30T14:37:19;8.60;95.30
35894;DHT22;21994;48.204;16.516;2024-01-30T14:39:45;8.30;95.80
35894;DHT22;21994;48.204;16.516;2024-01-30T14:42:11;8.10;95.90
35894;DHT22;21994;48.204;16.516;2024-01-30T14:44:37;8.00;96.40
35894;DHT22;21994;48.204;16.516;2024-01-30T14:47:03;7.80;96.60
35894;DHT22;21994;48.204;16.516;2024-01-30T14:49:28;7.80;96.90
35894;DHT22;21994;48.204;16.516;2024-01-30T14:51:54;7.60;97.00
35894;DHT22;21994;48.204;16.516;2024-01-30T14:54:20;7.40;97.10
35894;DHT22;21994;48.204;16.516;2024-01-30T14:56:46;7.30;97.30
35894;DHT22;21994;48.204;16.516;2024-01-30T14:59:11;7.30;97.40
35894;DHT22;21994;48.204;16.516;2024-01-30T15:01:37;7.30;97.50
35894;DHT22;21994;48.204;16.516;2024-01-30T15:04:03;7.30;97.70
35894;DHT22;21994;48.204;16.516;2024-01-30T15:06:29;7.20;97.80
35894;DHT22;21994;48.204;16.516;2024-01-30T15:08:55;7.10;97.80
35894;DHT22;21994;48.204;16.516;2024-01-30T15:11:21;7.10;98.00
35894;DHT22;21994;48.204;16.516;2024-01-30T15:13:46;7.00;98.30
35894;DHT22;21994;48.204;16.516;2024-01-30T15:16:12;6.90;98.40
35894;DHT22;21994;48.204;16.516;2024-01-30T15:18:38;6.90;98.80
35894;DHT22;21994;48.204;16.516;2024-01-30T15:21:04;6.80;99.00
35894;DHT22;21994;48.204;16.516;2024-01-30T15:23:30;6.70;99.00
35894;DHT22;21994;48.204;16.516;2024-01-30T15:25:55;6.70;99.00